sensor_id;sensor_type;location;lat;lon;timestamp;P1;durP1;ratioP1;P2;durP2;ratioP2
16262;SDS011;8239;48.594;8.598;2023-02-28T00:00:23;3.63;;;2.43;;
16262;SDS011;8239;48.594;8.598;2023-02-28T00:02:51;3.37;;;2.53;;
16262;SDS011;8239;48.594;8.598;2023-02-28T00:05:19;2.90;;;2.40;;
16262;SDS011;8239;48.594;8.598;2023-02-28T00:07:49;2.70;;;2.50;;
16262;SDS011;8239;48.594;8.598;2023-02-28T00:10:17;3.67;;;2.50;;
16262;SDS011;8239;48.594;8.598;2023-02-28T00:12:47;2.60;;;2.40;;
16262;SDS011;8239;48.594;8.598;2023-02-28T00:15:14;3.23;;;2.27;;
16262;SDS011;8239;48.594;8.598;2023-02-28T00:17:42;3.90;;;2.60;;
16262;SDS011;8239;48.594;8.598;2023-02-28T00:20:10;3.03;;;2.57;;
16262;SDS011;8239;48.594;8.598;2023-02-28T00:22:38;3.60;;;2.40;;
16262;SDS011;8239;48.594;8.598;2023-02-28T00:25:07;3.33;;;2.23;;
16262;SDS011;8239;48.594;8.598;2023-02-28T00:27:35;2.83;;;2.43;;
16262;SDS011;8239;48.594;8.598;2023-02-28T00:30:05;2.50;;;2.30;;
16262;SDS011;8239;48.594;8.598;2023-02-28T00:32:34;3.70;;;2.50;;
16262;SDS011;8239;48.594;8.598;2023-02-28T00:35:01;3.27;;;2.40;;
16262;SDS011;8239;48.594;8.598;2023-02-28T00:37:28;2.57;;;2.27;;
16262;SDS011;8239;48.594;8.598;2023-02-28T00:39:56;3.83;;;2.50;;
16262;SDS011;8239;48.594;8.598;2023-02-28T00:42:23;2.30;;;2.07;;
16262;SDS011;8239;48.594;8.598;2023-02-28T00:44:50;2.73;;;2.20;;
16262;SDS011;8239;48.594;8.598;2023-02-28T00:47:19;3.83;;;2.73;;
16262;SDS011;8239;48.594;8.598;2023-02-28T00:49:46;2.73;;;2.20;;
16262;SDS011;8239;48.594;8.598;2023-02-28T00:52:13;2.33;;;2.23;;
16262;SDS011;8239;48.594;8.598;2023-02-28T00:54:40;2.40;;;2.20;;
16262;SDS011;8239;48.594;8.598;2023-02-28T00:57:07;3.37;;;2.30;;
16262;SDS011;8239;48.594;8.598;2023-02-28T00:59:34;2.73;;;2.30;;
16262;SDS011;8239;48.594;8.598;2023-02-28T01:02:01;2.90;;;2.40;;
16262;SDS011;8239;48.594;8.598;2023-02-28T01:04:29;2.43;;;2.23;;
16262;SDS011;8239;48.594;8.598;2023-02-28T01:06:56;3.03;;;2.40;;
16262;SDS011;8239;48.594;8.598;2023-02-28T01:09:23;3.17;;;2.03;;
16262;SDS011;8239;48.594;8.598;2023-02-28T01:11:50;2.40;;;2.20;;
16262;SDS011;8239;48.594;8.598;2023-02-28T01:14:17;4.30;;;2.20;;
16262;SDS011;8239;48.594;8.598;2023-02-28T01:16:44;3.23;;;2.10;;
16262;SDS011;8239;48.594;8.598;2023-02-28T01:19:12;3.67;;;2.47;;
16262;SDS011;8239;48.594;8.598;2023-02-28T01:21:40;3.60;;;2.10;;
16262;SDS011;8239;48.594;8.598;2023-02-28T01:24:07;3.40;;;2.13;;
16262;SDS011;8239;48.594;8.598;2023-02-28T01:26:34;3.80;;;2.30;;
16262;SDS011;8239;48.594;8.598;2023-02-28T01:29:01;2.47;;;2.27;;
16262;SDS011;8239;48.594;8.598;2023-02-28T01:31:28;3.13;;;2.40;;
16262;SDS011;8239;48.594;8.598;2023-02-28T01:33:55;2.60;;;2.23;;
16262;SDS011;8239;48.594;8.598;2023-02-28T01:36:23;3.53;;;2.20;;
16262;SDS011;8239;48.594;8.598;2023-02-28T01:38:52;3.27;;;2.20;;
16262;SDS011;8239;48.594;8.598;2023-02-28T01:41:21;3.10;;;2.33;;
16262;SDS011;8239;48.594;8.598;2023-02-28T01:43:53;3.97;;;2.73;;
16262;SDS011;8239;48.594;8.598;2023-02-28T01:46:23;4.63;;;2.40;;
16262;SDS011;8239;48.594;8.598;2023-02-28T01:48:51;2.97;;;2.17;;
16262;SDS011;8239;48.594;8.598;2023-02-28T01:51:21;2.97;;;2.60;;
16262;SDS011;8239;48.594;8.598;2023-02-28T01:53:53;3.67;;;2.50;;
16262;SDS011;8239;48.594;8.598;2023-02-28T01:56:25;4.00;;;2.50;;
16262;SDS011;8239;48.594;8.598;2023-02-28T01:58:55;3.30;;;2.73;;
16262;SDS011;8239;48.594;8.598;2023-02-28T02:01:22;3.20;;;2.40;;
16262;SDS011;8239;48.594;8.598;2023-02-28T02:03:53;4.20;;;2.60;;
16262;SDS011;8239;48.594;8.598;2023-02-28T02:06:22;3.97;;;2.77;;
16262;SDS011;8239;48.594;8.598;2023-02-28T02:08:55;4.70;;;2.60;;
16262;SDS011;8239;48.594;8.598;2023-02-28T02:11:22;5.43;;;2.73;;
16262;SDS011;8239;48.594;8.598;2023-02-28T02:14:07;4.00;;;2.77;;
16262;SDS011;8239;48.594;8.598;2023-02-28T02:16:57;4.33;;;2.83;;
16262;SDS011;8239;48.594;8.598;2023-02-28T02:23:01;2.90;;;2.60;;
16262;SDS011;8239;48.594;8.598;2023-02-28T02:26:03;3.37;;;2.50;;
16262;SDS011;8239;48.594;8.598;2023-02-28T02:28:53;3.13;;;2.60;;
16262;SDS011;8239;48.594;8.598;2023-02-28T02:34:44;5.03;;;3.00;;
16262;SDS011;8239;48.594;8.598;2023-02-28T02:37:25;4.27;;;3.30;;
16262;SDS011;8239;48.594;8.598;2023-02-28T02:39:58;5.83;;;2.87;;
16262;SDS011;8239;48.594;8.598;2023-02-28T02:42:32;4.07;;;3.13;;
16262;SDS011;8239;48.594;8.598;2023-02-28T02:45:05;3.93;;;2.80;;
16262;SDS011;8239;48.594;8.598;2023-02-28T02:47:36;3.57;;;3.03;;
16262;SDS011;8239;48.594;8.598;2023-02-28T02:50:08;4.60;;;3.07;;
16262;SDS011;8239;48.594;8.598;2023-02-28T02:52:40;3.83;;;2.90;;
16262;SDS011;8239;48.594;8.598;2023-02-28T02:55:11;4.70;;;3.17;;
16262;SDS011;8239;48.594;8.598;2023-02-28T02:57:40;4.10;;;3.03;;
16262;SDS011;8239;48.594;8.598;2023-02-28T03:00:12;5.23;;;3.20;;
16262;SDS011;8239;48.594;8.598;2023-02-28T03:02:41;4.87;;;3.33;;
16262;SDS011;8239;48.594;8.598;2023-02-28T03:05:14;5.00;;;3.57;;
16262;SDS011;8239;48.594;8.598;2023-02-28T03:07:45;5.07;;;2.77;;
16262;SDS011;8239;48.594;8.598;2023-02-28T03:10:26;4.17;;;3.50;;
16262;SDS011;8239;48.594;8.598;2023-02-28T03:13:11;4.40;;;3.43;;
16262;SDS011;8239;48.594;8.598;2023-02-28T03:19:01;4.00;;;3.57;;
16262;SDS011;8239;48.594;8.598;2023-02-28T03:21:37;3.77;;;3.37;;
16262;SDS011;8239;48.594;8.598;2023-02-28T03:24:10;4.43;;;3.70;;
16262;SDS011;8239;48.594;8.598;2023-02-28T03:26:42;5.97;;;3.87;;
16262;SDS011;8239;48.594;8.598;2023-02-28T03:29:15;6.13;;;3.63;;
16262;SDS011;8239;48.594;8.598;2023-02-28T03:31:48;5.07;;;3.27;;
16262;SDS011;8239;48.594;8.598;2023-02-28T03:34:19;4.17;;;3.27;;
16262;SDS011;8239;48.594;8.598;2023-02-28T03:36:55;5.53;;;3.57;;
16262;SDS011;8239;48.594;8.598;2023-02-28T03:39:27;6.30;;;4.03;;
16262;SDS011;8239;48.594;8.598;2023-02-28T03:42:00;8.63;;;4.10;;
16262;SDS011;8239;48.594;8.598;2023-02-28T03:44:32;5.20;;;3.80;;
16262;SDS011;8239;48.594;8.598;2023-02-28T03:47:02;6.23;;;4.10;;
16262;SDS011;8239;48.594;8.598;2023-02-28T03:49:34;6.73;;;4.20;;
16262;SDS011;8239;48.594;8.598;2023-02-28T03:52:05;5.60;;;4.00;;
16262;SDS011;8239;48.594;8.598;2023-02-28T03:54:35;4.43;;;3.93;;
16262;SDS011;8239;48.594;8.598;2023-02-28T03:57:08;7.27;;;4.23;;
16262;SDS011;8239;48.594;8.598;2023-02-28T03:59:41;5.33;;;3.90;;
16262;SDS011;8239;48.594;8.598;2023-02-28T04:02:11;7.23;;;4.87;;
16262;SDS011;8239;48.594;8.598;2023-02-28T04:04:38;6.87;;;4.40;;
16262;SDS011;8239;48.594;8.598;2023-02-28T04:07:16;6.60;;;4.23;;
16262;SDS011;8239;48.594;8.598;2023-02-28T04:09:43;6.70;;;4.20;;
16262;SDS011;8239;48.594;8.598;2023-02-28T04:12:10;6.13;;;4.30;;
16262;SDS011;8239;48.594;8.598;2023-02-28T04:14:37;6.50;;;4.27;;
16262;SDS011;8239;48.594;8.598;2023-02-28T04:17:04;5.60;;;4.40;;
16262;SDS011;8239;48.594;8.598;2023-02-28T04:19:31;5.53;;;4.50;;
16262;SDS011;8239;48.594;8.598;2023-02-28T04:21:59;7.83;;;4.83;;
16262;SDS011;8239;48.594;8.598;2023-02-28T04:24:27;6.07;;;4.43;;
16262;SDS011;8239;48.594;8.598;2023-02-28T04:26:55;4.73;;;4.10;;
16262;SDS011;8239;48.594;8.598;2023-02-28T04:29:24;5.13;;;4.40;;
16262;SDS011;8239;48.594;8.598;2023-02-28T04:31:52;7.80;;;4.70;;
16262;SDS011;8239;48.594;8.598;2023-02-28T04:34:20;5.30;;;4.27;;
16262;SDS011;8239;48.594;8.598;2023-02-28T04:36:48;6.47;;;4.77;;
16262;SDS011;8239;48.594;8.598;2023-02-28T04:39:16;4.80;;;3.97;;
16262;SDS011;8239;48.594;8.598;2023-02-28T04:41:44;7.30;;;4.73;;
16262;SDS011;8239;48.594;8.598;2023-02-28T04:44:12;7.57;;;4.80;;
16262;SDS011;8239;48.594;8.598;2023-02-28T04:46:39;8.30;;;5.73;;
16262;SDS011;8239;48.594;8.598;2023-02-28T04:49:07;7.00;;;5.00;;
16262;SDS011;8239;48.594;8.598;2023-02-28T04:51:34;8.20;;;4.90;;
16262;SDS011;8239;48.594;8.598;2023-02-28T04:54:01;8.23;;;5.30;;
16262;SDS011;8239;48.594;8.598;2023-02-28T04:56:29;4.73;;;3.87;;
16262;SDS011;8239;48.594;8.598;2023-02-28T04:58:57;7.80;;;4.87;;
16262;SDS011;8239;48.594;8.598;2023-02-28T05:01:25;6.80;;;4.73;;
16262;SDS011;8239;48.594;8.598;2023-02-28T05:03:54;7.00;;;5.33;;
16262;SDS011;8239;48.594;8.598;2023-02-28T05:06:23;5.57;;;4.60;;
16262;SDS011;8239;48.594;8.598;2023-02-28T05:08:52;6.27;;;5.10;;
16262;SDS011;8239;48.594;8.598;2023-02-28T05:11:20;7.67;;;5.53;;
16262;SDS011;8239;48.594;8.598;2023-02-28T05:13:49;6.63;;;5.30;;
16262;SDS011;8239;48.594;8.598;2023-02-28T05:16:18;5.87;;;4.90;;
16262;SDS011;8239;48.594;8.598;2023-02-28T05:18:45;6.90;;;5.10;;
16262;SDS011;8239;48.594;8.598;2023-02-28T05:24:02;7.37;;;5.00;;
16262;SDS011;8239;48.594;8.598;2023-02-28T05:26:31;8.57;;;5.47;;
16262;SDS011;8239;48.594;8.598;2023-02-28T05:29:01;7.53;;;5.30;;
16262;SDS011;8239;48.594;8.598;2023-02-28T05:31:29;7.20;;;5.40;;
16262;SDS011;8239;48.594;8.598;2023-02-28T05:33:56;7.47;;;5.53;;
16262;SDS011;8239;48.594;8.598;2023-02-28T05:36:23;7.80;;;5.95;;
16262;SDS011;8239;48.594;8.598;2023-02-28T05:38:50;6.30;;;5.40;;
16262;SDS011;8239;48.594;8.598;2023-02-28T05:41:18;7.10;;;5.87;;
16262;SDS011;8239;48.594;8.598;2023-02-28T05:43:46;8.73;;;5.83;;
16262;SDS011;8239;48.594;8.598;2023-02-28T05:46:13;6.87;;;5.40;;
16262;SDS011;8239;48.594;8.598;2023-02-28T05:48:45;8.07;;;5.83;;
16262;SDS011;8239;48.594;8.598;2023-02-28T05:51:13;7.63;;;5.73;;
16262;SDS011;8239;48.594;8.598;2023-02-28T05:53:40;8.50;;;5.87;;
16262;SDS011;8239;48.594;8.598;2023-02-28T05:56:07;8.27;;;5.60;;
16262;SDS011;8239;48.594;8.598;2023-02-28T05:58:34;8.37;;;5.47;;
16262;SDS011;8239;48.594;8.598;2023-02-28T06:01:18;9.73;;;6.00;;
16262;SDS011;8239;48.594;8.598;2023-02-28T06:03:48;9.13;;;6.00;;
16262;SDS011;8239;48.594;8.598;2023-02-28T06:06:15;9.40;;;6.20;;
16262;SDS011;8239;48.594;8.598;2023-02-28T06:08:42;8.27;;;6.20;;
16262;SDS011;8239;48.594;8.598;2023-02-28T06:11:10;8.17;;;5.13;;
16262;SDS011;8239;48.594;8.598;2023-02-28T06:13:37;6.60;;;5.10;;
16262;SDS011;8239;48.594;8.598;2023-02-28T06:16:05;8.17;;;5.33;;
16262;SDS011;8239;48.594;8.598;2023-02-28T06:18:32;7.77;;;6.20;;
16262;SDS011;8239;48.594;8.598;2023-02-28T06:21:00;8.90;;;5.97;;
16262;SDS011;8239;48.594;8.598;2023-02-28T06:23:27;9.67;;;6.23;;
16262;SDS011;8239;48.594;8.598;2023-02-28T06:25:54;9.63;;;6.10;;
16262;SDS011;8239;48.594;8.598;2023-02-28T06:28:23;8.80;;;6.10;;
16262;SDS011;8239;48.594;8.598;2023-02-28T06:30:51;7.33;;;5.50;;
16262;SDS011;8239;48.594;8.598;2023-02-28T06:33:18;8.60;;;6.23;;
16262;SDS011;8239;48.594;8.598;2023-02-28T06:35:46;10.27;;;6.50;;
16262;SDS011;8239;48.594;8.598;2023-02-28T06:38:14;7.20;;;5.77;;
16262;SDS011;8239;48.594;8.598;2023-02-28T06:40:41;10.37;;;5.60;;
16262;SDS011;8239;48.594;8.598;2023-02-28T06:43:09;8.87;;;7.00;;
16262;SDS011;8239;48.594;8.598;2023-02-28T06:45:40;8.63;;;6.40;;
16262;SDS011;8239;48.594;8.598;2023-02-28T06:48:08;10.27;;;6.67;;
16262;SDS011;8239;48.594;8.598;2023-02-28T06:50:36;10.10;;;6.53;;
16262;SDS011;8239;48.594;8.598;2023-02-28T06:53:03;10.03;;;6.57;;
16262;SDS011;8239;48.594;8.598;2023-02-28T06:55:31;8.97;;;6.77;;
16262;SDS011;8239;48.594;8.598;2023-02-28T06:57:58;8.17;;;6.23;;
16262;SDS011;8239;48.594;8.598;2023-02-28T07:00:25;9.90;;;6.50;;
16262;SDS011;8239;48.594;8.598;2023-02-28T07:02:52;9.23;;;6.83;;
16262;SDS011;8239;48.594;8.598;2023-02-28T07:05:20;8.60;;;6.23;;
16262;SDS011;8239;48.594;8.598;2023-02-28T07:07:47;10.40;;;6.80;;
16262;SDS011;8239;48.594;8.598;2023-02-28T07:10:14;10.03;;;6.90;;
16262;SDS011;8239;48.594;8.598;2023-02-28T07:12:43;10.27;;;6.67;;
16262;SDS011;8239;48.594;8.598;2023-02-28T07:15:10;9.90;;;6.83;;
16262;SDS011;8239;48.594;8.598;2023-02-28T07:17:37;9.50;;;6.97;;
16262;SDS011;8239;48.594;8.598;2023-02-28T07:20:05;9.63;;;6.87;;
16262;SDS011;8239;48.594;8.598;2023-02-28T07:22:33;10.43;;;6.83;;
16262;SDS011;8239;48.594;8.598;2023-02-28T07:25:00;9.60;;;7.27;;
16262;SDS011;8239;48.594;8.598;2023-02-28T07:27:27;7.93;;;5.97;;
16262;SDS011;8239;48.594;8.598;2023-02-28T07:29:55;9.00;;;6.67;;
16262;SDS011;8239;48.594;8.598;2023-02-28T07:32:26;10.83;;;7.27;;
16262;SDS011;8239;48.594;8.598;2023-02-28T07:34:53;11.23;;;6.83;;
16262;SDS011;8239;48.594;8.598;2023-02-28T07:37:20;8.73;;;6.60;;
16262;SDS011;8239;48.594;8.598;2023-02-28T07:39:48;10.43;;;7.33;;
16262;SDS011;8239;48.594;8.598;2023-02-28T07:42:16;9.43;;;7.27;;
16262;SDS011;8239;48.594;8.598;2023-02-28T07:44:43;9.97;;;6.70;;
16262;SDS011;8239;48.594;8.598;2023-02-28T07:47:11;10.60;;;7.07;;
16262;SDS011;8239;48.594;8.598;2023-02-28T07:49:38;8.40;;;6.03;;
16262;SDS011;8239;48.594;8.598;2023-02-28T07:52:06;9.50;;;6.90;;
16262;SDS011;8239;48.594;8.598;2023-02-28T07:54:33;10.30;;;6.53;;
16262;SDS011;8239;48.594;8.598;2023-02-28T07:57:00;14.40;;;8.17;;
16262;SDS011;8239;48.594;8.598;2023-02-28T07:59:27;9.23;;;6.97;;
16262;SDS011;8239;48.594;8.598;2023-02-28T08:01:56;9.83;;;6.80;;
16262;SDS011;8239;48.594;8.598;2023-02-28T08:04:25;9.37;;;6.70;;
16262;SDS011;8239;48.594;8.598;2023-02-28T08:06:52;10.70;;;6.70;;
16262;SDS011;8239;48.594;8.598;2023-02-28T08:09:21;8.90;;;7.30;;
16262;SDS011;8239;48.594;8.598;2023-02-28T08:11:48;13.17;;;7.37;;
16262;SDS011;8239;48.594;8.598;2023-02-28T08:14:15;12.23;;;7.23;;
16262;SDS011;8239;48.594;8.598;2023-02-28T08:16:42;9.17;;;6.57;;
16262;SDS011;8239;48.594;8.598;2023-02-28T08:19:10;8.23;;;6.40;;
16262;SDS011;8239;48.594;8.598;2023-02-28T08:21:39;9.50;;;6.47;;
16262;SDS011;8239;48.594;8.598;2023-02-28T08:24:06;9.23;;;7.00;;
16262;SDS011;8239;48.594;8.598;2023-02-28T08:26:34;9.03;;;6.57;;
16262;SDS011;8239;48.594;8.598;2023-02-28T08:29:01;10.63;;;7.23;;
16262;SDS011;8239;48.594;8.598;2023-02-28T08:31:27;10.97;;;7.17;;
16262;SDS011;8239;48.594;8.598;2023-02-28T08:33:58;11.30;;;7.50;;
16262;SDS011;8239;48.594;8.598;2023-02-28T08:36:25;10.63;;;7.67;;
16262;SDS011;8239;48.594;8.598;2023-02-28T08:38:56;18.90;;;10.10;;
16262;SDS011;8239;48.594;8.598;2023-02-28T08:41:24;10.47;;;7.80;;
16262;SDS011;8239;48.594;8.598;2023-02-28T08:43:52;13.83;;;8.57;;
16262;SDS011;8239;48.594;8.598;2023-02-28T08:46:19;10.30;;;6.97;;
16262;SDS011;8239;48.594;8.598;2023-02-28T08:48:47;11.23;;;7.20;;
16262;SDS011;8239;48.594;8.598;2023-02-28T08:51:17;9.70;;;7.30;;
16262;SDS011;8239;48.594;8.598;2023-02-28T08:53:51;11.80;;;7.23;;
16262;SDS011;8239;48.594;8.598;2023-02-28T08:56:20;12.00;;;7.63;;
16262;SDS011;8239;48.594;8.598;2023-02-28T08:58:48;9.60;;;7.23;;
16262;SDS011;8239;48.594;8.598;2023-02-28T09:01:16;12.37;;;7.60;;
16262;SDS011;8239;48.594;8.598;2023-02-28T09:03:45;10.23;;;6.73;;
16262;SDS011;8239;48.594;8.598;2023-02-28T09:06:13;10.30;;;7.23;;
16262;SDS011;8239;48.594;8.598;2023-02-28T09:08:41;9.30;;;6.67;;
16262;SDS011;8239;48.594;8.598;2023-02-28T09:11:09;9.37;;;7.60;;
16262;SDS011;8239;48.594;8.598;2023-02-28T09:13:38;9.53;;;7.10;;
16262;SDS011;8239;48.594;8.598;2023-02-28T09:16:06;11.17;;;6.73;;
16262;SDS011;8239;48.594;8.598;2023-02-28T09:18:34;12.50;;;7.50;;
16262;SDS011;8239;48.594;8.598;2023-02-28T09:21:02;10.00;;;7.37;;
16262;SDS011;8239;48.594;8.598;2023-02-28T09:23:30;11.33;;;7.70;;
16262;SDS011;8239;48.594;8.598;2023-02-28T09:26:00;8.57;;;6.93;;
16262;SDS011;8239;48.594;8.598;2023-02-28T09:28:27;8.97;;;7.10;;
16262;SDS011;8239;48.594;8.598;2023-02-28T09:30:55;9.23;;;7.10;;
16262;SDS011;8239;48.594;8.598;2023-02-28T09:33:23;9.73;;;7.57;;
16262;SDS011;8239;48.594;8.598;2023-02-28T09:35:56;11.63;;;8.00;;
16262;SDS011;8239;48.594;8.598;2023-02-28T09:38:25;9.93;;;7.57;;
16262;SDS011;8239;48.594;8.598;2023-02-28T09:40:53;10.53;;;7.47;;
16262;SDS011;8239;48.594;8.598;2023-02-28T09:43:22;10.03;;;7.37;;
16262;SDS011;8239;48.594;8.598;2023-02-28T09:45:54;13.00;;;7.53;;
16262;SDS011;8239;48.594;8.598;2023-02-28T09:48:28;9.90;;;7.10;;
16262;SDS011;8239;48.594;8.598;2023-02-28T09:51:00;11.67;;;7.80;;
16262;SDS011;8239;48.594;8.598;2023-02-28T09:53:30;10.30;;;6.97;;
16262;SDS011;8239;48.594;8.598;2023-02-28T09:56:01;11.57;;;7.37;;
16262;SDS011;8239;48.594;8.598;2023-02-28T09:58:34;10.47;;;7.83;;
16262;SDS011;8239;48.594;8.598;2023-02-28T10:01:09;10.63;;;7.10;;
16262;SDS011;8239;48.594;8.598;2023-02-28T10:03:46;9.80;;;7.67;;
16262;SDS011;8239;48.594;8.598;2023-02-28T10:06:17;10.43;;;7.90;;
16262;SDS011;8239;48.594;8.598;2023-02-28T10:08:48;10.80;;;7.57;;
16262;SDS011;8239;48.594;8.598;2023-02-28T10:11:23;10.87;;;7.60;;
16262;SDS011;8239;48.594;8.598;2023-02-28T10:13:52;10.40;;;7.57;;
16262;SDS011;8239;48.594;8.598;2023-02-28T10:16:29;10.17;;;7.70;;
16262;SDS011;8239;48.594;8.598;2023-02-28T10:19:02;11.93;;;7.93;;
16262;SDS011;8239;48.594;8.598;2023-02-28T10:21:31;13.13;;;8.13;;
16262;SDS011;8239;48.594;8.598;2023-02-28T10:24:04;9.07;;;6.53;;
16262;SDS011;8239;48.594;8.598;2023-02-28T10:26:45;11.47;;;7.50;;
16262;SDS011;8239;48.594;8.598;2023-02-28T10:29:13;11.53;;;7.80;;
16262;SDS011;8239;48.594;8.598;2023-02-28T10:31:42;9.37;;;6.57;;
16262;SDS011;8239;48.594;8.598;2023-02-28T10:34:11;11.13;;;8.00;;
16262;SDS011;8239;48.594;8.598;2023-02-28T10:36:39;10.83;;;7.70;;
16262;SDS011;8239;48.594;8.598;2023-02-28T10:42:07;9.37;;;7.70;;
16262;SDS011;8239;48.594;8.598;2023-02-28T10:44:47;10.67;;;7.10;;
16262;SDS011;8239;48.594;8.598;2023-02-28T10:47:17;10.03;;;7.40;;
16262;SDS011;8239;48.594;8.598;2023-02-28T10:49:47;10.57;;;7.77;;
16262;SDS011;8239;48.594;8.598;2023-02-28T10:52:33;10.40;;;7.93;;
16262;SDS011;8239;48.594;8.598;2023-02-28T10:55:21;12.87;;;7.20;;
16262;SDS011;8239;48.594;8.598;2023-02-28T10:57:50;7.97;;;6.33;;
16262;SDS011;8239;48.594;8.598;2023-02-28T11:00:18;8.87;;;6.87;;
16262;SDS011;8239;48.594;8.598;2023-02-28T11:02:48;11.63;;;7.90;;
16262;SDS011;8239;48.594;8.598;2023-02-28T11:05:23;11.70;;;8.00;;
16262;SDS011;8239;48.594;8.598;2023-02-28T11:07:51;9.83;;;7.10;;
16262;SDS011;8239;48.594;8.598;2023-02-28T11:10:20;11.57;;;7.87;;
16262;SDS011;8239;48.594;8.598;2023-02-28T11:12:54;10.00;;;7.70;;
16262;SDS011;8239;48.594;8.598;2023-02-28T11:15:23;9.30;;;7.53;;
16262;SDS011;8239;48.594;8.598;2023-02-28T11:17:57;9.33;;;7.27;;
16262;SDS011;8239;48.594;8.598;2023-02-28T11:20:26;10.90;;;8.00;;
16262;SDS011;8239;48.594;8.598;2023-02-28T11:22:58;14.03;;;8.67;;
16262;SDS011;8239;48.594;8.598;2023-02-28T11:25:29;9.67;;;7.50;;
16262;SDS011;8239;48.594;8.598;2023-02-28T11:27:58;11.07;;;7.90;;
16262;SDS011;8239;48.594;8.598;2023-02-28T11:30:29;10.87;;;8.30;;
16262;SDS011;8239;48.594;8.598;2023-02-28T11:33:13;10.37;;;7.60;;
16262;SDS011;8239;48.594;8.598;2023-02-28T11:35:50;8.47;;;6.53;;
16262;SDS011;8239;48.594;8.598;2023-02-28T11:38:19;9.43;;;5.70;;
16262;SDS011;8239;48.594;8.598;2023-02-28T11:40:47;9.17;;;7.00;;
16262;SDS011;8239;48.594;8.598;2023-02-28T11:43:29;10.57;;;7.40;;
16262;SDS011;8239;48.594;8.598;2023-02-28T11:46:06;9.80;;;7.27;;
16262;SDS011;8239;48.594;8.598;2023-02-28T11:48:47;9.10;;;7.93;;
16262;SDS011;8239;48.594;8.598;2023-02-28T11:51:26;8.57;;;6.70;;
16262;SDS011;8239;48.594;8.598;2023-02-28T11:54:06;10.87;;;8.40;;
16262;SDS011;8239;48.594;8.598;2023-02-28T11:56:57;9.73;;;7.50;;
16262;SDS011;8239;48.594;8.598;2023-02-28T11:59:31;9.47;;;7.70;;
16262;SDS011;8239;48.594;8.598;2023-02-28T12:05:13;6.30;;;4.43;;
16262;SDS011;8239;48.594;8.598;2023-02-28T12:07:51;10.53;;;7.80;;
16262;SDS011;8239;48.594;8.598;2023-02-28T12:10:28;9.23;;;6.60;;
16262;SDS011;8239;48.594;8.598;2023-02-28T12:13:00;10.40;;;7.20;;
16262;SDS011;8239;48.594;8.598;2023-02-28T12:15:38;7.23;;;5.73;;
16262;SDS011;8239;48.594;8.598;2023-02-28T12:18:18;8.67;;;6.60;;
16262;SDS011;8239;48.594;8.598;2023-02-28T12:21:04;9.20;;;7.97;;
16262;SDS011;8239;48.594;8.598;2023-02-28T12:23:46;10.97;;;7.57;;
16262;SDS011;8239;48.594;8.598;2023-02-28T12:26:27;10.40;;;7.47;;
16262;SDS011;8239;48.594;8.598;2023-02-28T12:29:01;8.93;;;7.50;;
16262;SDS011;8239;48.594;8.598;2023-02-28T12:31:38;9.40;;;7.43;;
16262;SDS011;8239;48.594;8.598;2023-02-28T12:34:09;9.20;;;7.70;;
16262;SDS011;8239;48.594;8.598;2023-02-28T12:36:40;9.30;;;7.50;;
16262;SDS011;8239;48.594;8.598;2023-02-28T12:39:10;8.30;;;5.53;;
16262;SDS011;8239;48.594;8.598;2023-02-28T12:41:44;10.13;;;8.10;;
16262;SDS011;8239;48.594;8.598;2023-02-28T12:44:14;8.63;;;7.00;;
16262;SDS011;8239;48.594;8.598;2023-02-28T12:46:47;9.57;;;7.77;;
16262;SDS011;8239;48.594;8.598;2023-02-28T12:49:17;8.00;;;6.43;;
16262;SDS011;8239;48.594;8.598;2023-02-28T12:51:49;8.27;;;7.03;;
16262;SDS011;8239;48.594;8.598;2023-02-28T12:54:19;7.83;;;6.23;;
16262;SDS011;8239;48.594;8.598;2023-02-28T12:56:53;9.43;;;7.80;;
16262;SDS011;8239;48.594;8.598;2023-02-28T12:59:25;5.33;;;4.43;;
16262;SDS011;8239;48.594;8.598;2023-02-28T13:02:01;7.67;;;6.67;;
16262;SDS011;8239;48.594;8.598;2023-02-28T13:04:56;7.93;;;6.50;;
16262;SDS011;8239;48.594;8.598;2023-02-28T13:07:49;10.33;;;7.33;;
16262;SDS011;8239;48.594;8.598;2023-02-28T13:10:39;8.33;;;7.47;;
16262;SDS011;8239;48.594;8.598;2023-02-28T13:13:17;8.17;;;7.23;;
16262;SDS011;8239;48.594;8.598;2023-02-28T13:16:00;7.27;;;6.53;;
16262;SDS011;8239;48.594;8.598;2023-02-28T13:18:31;8.60;;;7.07;;
16262;SDS011;8239;48.594;8.598;2023-02-28T13:21:01;7.70;;;6.37;;
16262;SDS011;8239;48.594;8.598;2023-02-28T13:29:30;8.37;;;7.10;;
16262;SDS011;8239;48.594;8.598;2023-02-28T13:35:15;8.90;;;8.00;;
16262;SDS011;8239;48.594;8.598;2023-02-28T13:44:07;8.45;;;7.50;;
16262;SDS011;8239;48.594;8.598;2023-02-28T13:46:36;8.55;;;7.75;;
16262;SDS011;8239;48.594;8.598;2023-02-28T13:49:33;9.60;;;7.93;;
16262;SDS011;8239;48.594;8.598;2023-02-28T13:52:02;9.35;;;8.35;;
16262;SDS011;8239;48.594;8.598;2023-02-28T13:54:42;9.20;;;8.30;;
16262;SDS011;8239;48.594;8.598;2023-02-28T13:57:23;9.47;;;8.13;;
16262;SDS011;8239;48.594;8.598;2023-02-28T14:00:05;8.87;;;7.93;;
16262;SDS011;8239;48.594;8.598;2023-02-28T14:05:39;8.97;;;7.33;;
16262;SDS011;8239;48.594;8.598;2023-02-28T14:08:07;9.30;;;8.37;;
16262;SDS011;8239;48.594;8.598;2023-02-28T14:10:42;8.70;;;7.80;;
16262;SDS011;8239;48.594;8.598;2023-02-28T14:13:13;9.43;;;7.63;;
16262;SDS011;8239;48.594;8.598;2023-02-28T14:15:57;9.80;;;8.60;;
16262;SDS011;8239;48.594;8.598;2023-02-28T14:18:28;9.20;;;8.30;;
16262;SDS011;8239;48.594;8.598;2023-02-28T14:20:58;8.90;;;8.00;;
16262;SDS011;8239;48.594;8.598;2023-02-28T14:23:44;8.10;;;7.30;;
16262;SDS011;8239;48.594;8.598;2023-02-28T14:26:29;9.30;;;7.75;;
16262;SDS011;8239;48.594;8.598;2023-02-28T14:29:14;8.82;;;7.93;;
16262;SDS011;8239;48.594;8.598;2023-02-28T14:32:06;8.18;;;7.38;;
16262;SDS011;8239;48.594;8.598;2023-02-28T14:34:43;7.78;;;6.97;;
16262;SDS011;8239;48.594;8.598;2023-02-28T14:37:19;7.72;;;7.03;;
16262;SDS011;8239;48.594;8.598;2023-02-28T14:39:55;7.88;;;7.10;;
16262;SDS011;8239;48.594;8.598;2023-02-28T14:42:27;9.00;;;7.47;;
16262;SDS011;8239;48.594;8.598;2023-02-28T14:44:56;8.10;;;7.30;;
16262;SDS011;8239;48.594;8.598;2023-02-28T14:47:28;7.80;;;7.00;;
16262;SDS011;8239;48.594;8.598;2023-02-28T14:50:02;8.15;;;7.35;;
16262;SDS011;8239;48.594;8.598;2023-02-28T14:52:31;8.70;;;7.80;;
16262;SDS011;8239;48.594;8.598;2023-02-28T14:54:59;8.07;;;7.38;;
16262;SDS011;8239;48.594;8.598;2023-02-28T14:57:31;8.02;;;7.22;;
16262;SDS011;8239;48.594;8.598;2023-02-28T15:00:03;7.97;;;7.25;;
16262;SDS011;8239;48.594;8.598;2023-02-28T15:02:39;7.75;;;7.00;;
16262;SDS011;8239;48.594;8.598;2023-02-28T15:05:21;8.10;;;7.30;;
16262;SDS011;8239;48.594;8.598;2023-02-28T15:08:06;7.88;;;7.18;;
16262;SDS011;8239;48.594;8.598;2023-02-28T15:10:38;8.27;;;7.47;;
16262;SDS011;8239;48.594;8.598;2023-02-28T15:13:11;9.57;;;8.68;;
16262;SDS011;8239;48.594;8.598;2023-02-28T15:15:42;8.18;;;7.35;;
16262;SDS011;8239;48.594;8.598;2023-02-28T15:18:15;8.63;;;7.70;;
16262;SDS011;8239;48.594;8.598;2023-02-28T15:20:49;8.52;;;7.72;;
16262;SDS011;8239;48.594;8.598;2023-02-28T15:23:17;9.60;;;7.88;;
16262;SDS011;8239;48.594;8.598;2023-02-28T15:25:47;8.90;;;7.93;;
16262;SDS011;8239;48.594;8.598;2023-02-28T15:28:15;7.82;;;7.22;;
16262;SDS011;8239;48.594;8.598;2023-02-28T15:30:56;8.00;;;7.20;;
16262;SDS011;8239;48.594;8.598;2023-02-28T15:33:27;9.13;;;8.23;;
16262;SDS011;8239;48.594;8.598;2023-02-28T15:36:11;8.80;;;8.00;;
16262;SDS011;8239;48.594;8.598;2023-02-28T15:38:40;8.48;;;7.53;;
16262;SDS011;8239;48.594;8.598;2023-02-28T15:41:20;8.60;;;7.70;;
16262;SDS011;8239;48.594;8.598;2023-02-28T15:43:57;8.90;;;8.00;;
16262;SDS011;8239;48.594;8.598;2023-02-28T15:46:41;8.65;;;7.80;;
16262;SDS011;8239;48.594;8.598;2023-02-28T15:49:17;9.30;;;8.35;;
16262;SDS011;8239;48.594;8.598;2023-02-28T15:51:49;10.80;;;9.38;;
16262;SDS011;8239;48.594;8.598;2023-02-28T15:54:22;8.18;;;7.15;;
16262;SDS011;8239;48.594;8.598;2023-02-28T15:56:52;8.80;;;7.90;;
16262;SDS011;8239;48.594;8.598;2023-02-28T15:59:22;7.65;;;6.95;;